Time;durP1;ratioP1;P1;durP2;ratioP2;P2;SDS_P1;SDS_P2;PMS_P1;PMS_P2;Temp;Humidity;BMP_temperature;BMP_pressure;BME280_temperature;BME280_humidity;BME280_pressure;Samples;Min_cycle;Max_cycle;Signal;HPM_P1;HPM_P2
2023/06/24 00:00:56;;;;;;;18.55;9.27;;;;;;;18.45;96.01;101733.25;5056246;28;20039;-68
2023/06/24 00:03:21;;;;;;;22.85;9.85;;;;;;;18.41;96.25;101729.31;5057056;28;20059;-67
2023/06/24 00:05:49;;;;;;;26.88;10.10;;;;;;;18.41;96.42;101740.19;5056767;28;20587;-67
2023/06/24 00:08:19;;;;;;;20.45;8.52;;;;;;;18.37;96.93;101736.28;5057082;28;20052;-67
2023/06/24 00:10:48;;;;;;;24.60;9.15;;;;;;;18.37;96.73;101734.38;5039860;28;20032;-67
2023/06/24 00:13:14;;;;;;;22.67;10.35;;;;;;;18.39;96.83;101726.00;5056201;28;20033;-67
2023/06/24 00:15:42;;;;;;;27.20;9.45;;;;;;;18.38;96.99;101732.50;5055805;28;20054;-68
2023/06/24 00:18:12;;;;;;;20.33;9.00;;;;;;;18.38;97.02;101735.25;5055424;28;20059;-67
2023/06/24 00:20:38;;;;;;;18.92;9.30;;;;;;;18.38;97.29;101737.97;5057098;28;20126;-67
2023/06/24 00:23:03;;;;;;;26.48;10.13;;;;;;;18.39;97.29;101736.91;5053437;28;20029;-68
2023/06/24 00:25:32;;;;;;;19.88;9.52;;;;;;;18.38;97.51;101738.78;5054113;28;20427;-67
2023/06/24 00:27:57;;;;;;;22.00;9.38;;;;;;;18.30;97.76;101739.09;5056416;28;20032;-67
2023/06/24 00:30:23;;;;;;;20.42;9.18;;;;;;;18.27;97.74;101734.91;5055194;28;20054;-67
2023/06/24 00:32:49;;;;;;;21.73;9.18;;;;;;;18.24;97.97;101734.53;5038749;28;20040;-67
2023/06/24 00:35:15;;;;;;;20.02;9.48;;;;;;;18.21;97.88;101735.00;5056694;28;20039;-67
2023/06/24 00:37:42;;;;;;;22.90;9.27;;;;;;;18.23;98.02;101736.44;5055467;28;20103;-67
2023/06/24 00:40:15;;;;;;;20.23;9.15;;;;;;;18.22;97.97;101742.13;5054777;28;20120;-67
2023/06/24 00:42:44;;;;;;;21.73;9.55;;;;;;;18.05;98.15;101715.50;5050980;28;20114;-67
2023/06/24 00:45:10;;;;;;;21.45;9.57;;;;;;;18.08;98.06;101720.47;5056583;28;20040;-67
2023/06/24 00:47:36;;;;;;;18.27;8.95;;;;;;;18.01;98.17;101711.56;5055095;28;20500;-67
2023/06/24 00:50:02;;;;;;;23.30;8.63;;;;;;;18.12;98.17;101734.47;5055432;28;20369;-67
2023/06/24 00:52:27;;;;;;;20.45;9.55;;;;;;;18.07;98.37;101732.41;5055587;28;20258;-67
2023/06/24 00:54:53;;;;;;;22.33;8.85;;;;;;;18.05;98.43;101731.00;5054866;28;20119;-67
2023/06/24 00:57:23;;;;;;;25.15;9.82;;;;;;;18.07;98.53;101737.03;5055878;28;20040;-67
2023/06/24 00:59:53;;;;;;;21.75;10.23;;;;;;;18.06;98.40;101728.03;5058143;28;20455;-67
2023/06/24 01:02:20;;;;;;;21.13;9.60;;;;;;;18.05;98.36;101722.84;5057361;28;20033;-67
2023/06/24 01:04:48;;;;;;;17.65;8.75;;;;;;;18.01;98.51;101730.63;5058936;28;20019;-67
2023/06/24 01:07:35;;;;;;;20.17;8.85;;;;;;;18.01;98.50;101724.31;5056324;28;20041;-68
2023/06/24 01:10:00;;;;;;;24.63;9.02;;;;;;;17.95;98.14;101720.63;5036713;28;20060;-67
2023/06/24 01:12:26;;;;;;;21.02;9.15;;;;;;;17.91;98.02;101718.56;5036997;28;20450;-67
2023/06/24 01:14:51;;;;;;;22.88;9.82;;;;;;;17.87;98.18;101720.91;5037095;28;20032;-67
2023/06/24 01:17:24;;;;;;;16.80;8.85;;;;;;;17.78;98.12;101714.94;5053296;28;20117;-67
2023/06/24 01:19:59;;;;;;;19.42;9.50;;;;;;;17.71;98.16;101725.00;5053561;28;20033;-67
2023/06/24 01:22:46;;;;;;;20.75;9.40;;;;;;;17.65;97.91;101723.22;5053512;28;20385;-67
2023/06/24 01:25:41;;;;;;;15.00;8.90;;;;;;;17.59;97.91;101738.53;5053464;28;20041;-67
2023/06/24 01:28:22;;;;;;;17.77;9.20;;;;;;;17.56;97.70;101733.53;5053652;28;20041;-68
2023/06/24 01:31:17;;;;;;;19.42;9.35;;;;;;;17.55;97.87;101740.03;5053379;28;20077;-67
2023/06/24 01:33:59;;;;;;;;;;;;;;;17.56;98.07;101732.69;5037254;28;20025;-67
2023/06/24 01:36:27;;;;;;;18.17;8.43;;;;;;;17.49;97.04;101738.19;5053406;28;19932;-67
2023/06/24 01:39:03;;;;;;;19.63;9.45;;;;;;;17.41;97.40;101724.84;5036533;28;20029;-67
2023/06/24 01:41:49;;;;;;;19.00;9.07;;;;;;;17.44;97.86;101731.75;5058857;28;20116;-68
2023/06/24 01:44:16;;;;;;;20.52;9.73;;;;;;;17.42;98.01;101732.00;5058555;28;20336;-67
2023/06/24 01:46:46;;;;;;;18.80;9.75;;;;;;;17.44;97.90;101731.75;5059057;28;20084;-67
2023/06/24 01:49:14;;;;;;;21.42;9.35;;;;;;;17.42;98.06;101732.00;5055735;28;20032;-66
2023/06/24 01:51:41;;;;;;;19.48;8.50;;;;;;;17.36;98.05;101711.09;5057354;28;20024;-67
2023/06/24 01:54:11;;;;;;;22.83;9.75;;;;;;;17.38;98.28;101723.44;5057651;28;20091;-67
2023/06/24 01:56:39;;;;;;;20.10;9.80;;;;;;;17.37;98.21;101718.19;5057661;28;20021;-67
2023/06/24 01:59:05;;;;;;;19.65;9.43;;;;;;;17.38;98.36;101725.31;5059358;28;20047;-70
2023/06/24 02:01:37;;;;;;;21.38;9.45;;;;;;;17.39;98.48;101727.00;5060006;28;20115;-67
2023/06/24 02:04:04;;;;;;;18.10;8.98;;;;;;;17.32;98.40;101729.75;5057912;28;20021;-67
2023/06/24 02:06:31;;;;;;;20.40;9.23;;;;;;;17.31;98.53;101736.25;5058016;28;20096;-67
2023/06/24 02:09:00;;;;;;;21.98;9.52;;;;;;;17.33;98.82;101741.47;5057717;28;20376;-67
2023/06/24 02:11:30;;;;;;;21.92;9.70;;;;;;;17.33;98.68;101744.19;5059210;28;20025;-67
2023/06/24 02:13:56;;;;;;;18.20;9.15;;;;;;;17.28;98.61;101742.13;5058820;28;20395;-67
2023/06/24 02:16:23;;;;;;;15.15;9.05;;;;;;;17.28;98.85;101735.84;5059150;28;20025;-67
2023/06/24 02:18:49;;;;;;;17.08;9.00;;;;;;;17.24;98.86;101721.84;5058980;28;20104;-67
2023/06/24 02:21:18;;;;;;;22.13;9.77;;;;;;;17.13;98.92;101703.53;5057794;28;20554;-67
2023/06/24 02:23:44;;;;;;;19.80;9.45;;;;;;;17.24;98.93;101719.13;5057416;28;20033;-68
2023/06/24 02:26:11;;;;;;;20.10;9.98;;;;;;;17.33;99.28;101731.41;5041328;28;20029;-67
2023/06/24 02:28:38;;;;;;;19.25;9.05;;;;;;;17.35;99.02;101729.31;5058992;28;20024;-67
2023/06/24 02:31:05;;;;;;;21.23;9.07;;;;;;;17.19;99.14;101705.38;5057712;28;20032;-67
2023/06/24 02:33:31;;;;;;;18.67;9.38;;;;;;;17.38;99.11;101730.75;5058516;28;20454;-67
2023/06/24 02:35:57;;;;;;;19.27;8.85;;;;;;;17.37;98.99;101729.09;5058852;28;20028;-67
2023/06/24 02:38:22;;;;;;;15.43;9.23;;;;;;;17.33;98.94;101723.25;5057665;28;20079;-67
2023/06/24 02:40:49;;;;;;;15.45;8.60;;;;;;;17.30;98.99;101729.13;5058971;28;20033;-67
2023/06/24 02:43:15;;;;;;;16.90;8.75;;;;;;;17.13;98.86;101698.09;5058866;28;20094;-67
2023/06/24 02:45:41;;;;;;;15.88;8.25;;;;;;;17.29;98.88;101721.22;5059046;28;20043;-67
2023/06/24 02:48:09;;;;;;;15.07;9.23;;;;;;;17.25;98.56;101726.25;5058551;28;20132;-67
2023/06/24 02:50:36;;;;;;;16.17;9.20;;;;;;;17.23;98.59;101722.94;5057112;28;20116;-67
2023/06/24 02:53:02;;;;;;;20.83;9.73;;;;;;;17.33;98.70;101734.13;5058054;28;20025;-67
2023/06/24 02:55:29;;;;;;;20.50;9.25;;;;;;;17.35;98.69;101731.19;5039768;28;20127;-67
2023/06/24 02:57:56;;;;;;;19.00;9.23;;;;;;;17.36;98.62;101730.97;5055579;28;20047;-67
2023/06/24 03:00:21;;;;;;;19.00;8.98;;;;;;;17.36;98.66;101733.69;5058444;28;20563;-67
2023/06/24 03:02:48;;;;;;;17.75;8.77;;;;;;;17.34;98.69;101735.78;5062739;28;20063;-67
2023/06/24 03:05:16;;;;;;;17.92;9.77;;;;;;;17.43;98.47;101736.38;5059120;28;20511;-67
2023/06/24 03:07:42;;;;;;;18.25;9.15;;;;;;;17.36;98.27;101728.25;5057025;28;20075;-67
2023/06/24 03:10:08;;;;;;;17.63;9.05;;;;;;;17.52;98.40;101742.38;5057031;28;20025;-67
2023/06/24 03:12:33;;;;;;;21.50;8.35;;;;;;;17.56;98.29;101743.59;5058164;28;20029;-67
2023/06/24 03:15:00;;;;;;;18.75;8.80;;;;;;;17.58;98.44;101738.75;5056778;28;20377;-67
2023/06/24 03:17:26;;;;;;;18.42;9.13;;;;;;;17.53;98.44;101724.97;5056708;28;20040;-67
2023/06/24 03:19:51;;;;;;;15.88;9.35;;;;;;;17.71;98.42;101746.78;5058326;28;20024;-67
2023/06/24 03:22:17;;;;;;;18.63;8.98;;;;;;;17.78;98.12;101747.63;5057865;28;20108;-67
2023/06/24 03:24:43;;;;;;;16.40;8.63;;;;;;;17.81;98.12;101741.72;5056759;28;20502;-67
2023/06/24 03:27:09;;;;;;;16.83;8.75;;;;;;;17.88;97.97;101752.53;5057206;28;20037;-67
2023/06/24 03:29:34;;;;;;;18.17;8.63;;;;;;;17.92;98.11;101742.03;5057675;28;20029;-67
2023/06/24 03:32:00;;;;;;;17.30;8.82;;;;;;;18.03;97.73;101744.84;5039875;28;20032;-67
2023/06/24 03:34:26;;;;;;;20.27;9.88;;;;;;;18.43;96.14;101727.19;5056351;28;20029;-67
2023/06/24 03:36:54;;;;;;;19.60;8.93;;;;;;;18.66;95.31;101742.84;5057846;28;20436;-67
2023/06/24 03:39:20;;;;;;;20.75;9.10;;;;;;;18.51;95.92;101729.63;5057983;28;20021;-67
2023/06/24 03:41:45;;;;;;;19.38;8.90;;;;;;;18.50;96.73;101749.75;5056579;28;20036;-67
2023/06/24 03:44:11;;;;;;;15.95;8.65;;;;;;;18.44;97.09;101747.94;5057278;28;20025;-67
2023/06/24 03:46:36;;;;;;;18.98;8.88;;;;;;;18.42;97.44;101750.06;5055995;28;20060;-67
2023/06/24 03:49:02;;;;;;;19.33;8.95;;;;;;;18.35;97.68;101733.78;5056941;28;20093;-67
2023/06/24 03:51:27;;;;;;;17.38;8.82;;;;;;;18.48;97.72;101773.69;5056591;28;20051;-67
2023/06/24 03:53:53;;;;;;;18.35;8.57;;;;;;;18.51;97.75;101751.44;5057301;28;20490;-67
2023/06/24 03:56:18;;;;;;;19.15;9.60;;;;;;;18.65;97.40;101769.28;5053395;28;20059;-67
2023/06/24 03:58:44;;;;;;;16.27;8.05;;;;;;;18.61;97.35;101750.84;5056908;28;20032;-67
2023/06/24 04:01:09;;;;;;;19.63;9.05;;;;;;;18.79;97.21;101772.69;5060605;28;20036;-67
2023/06/24 04:03:35;;;;;;;16.38;7.97;;;;;;;18.88;96.81;101770.47;5056748;28;20021;-66
2023/06/24 04:06:03;;;;;;;18.88;8.85;;;;;;;18.97;97.01;101767.19;5057206;28;20029;-67
2023/06/24 04:08:29;;;;;;;15.68;8.88;;;;;;;19.16;96.98;101769.84;5039028;28;20033;-67
2023/06/24 04:11:03;;;;;;;20.40;8.68;;;;;;;19.34;96.73;101768.97;5053954;28;20033;-67
2023/06/24 04:13:29;;;;;;;18.45;8.50;;;;;;;19.54;96.01;101769.47;5055859;28;20383;-67
2023/06/24 04:15:54;;;;;;;19.33;8.25;;;;;;;19.79;94.94;101768.44;5056412;28;20033;-67
2023/06/24 04:18:20;;;;;;;16.05;8.10;;;;;;;20.18;93.38;101783.28;5057108;28;20037;-67
2023/06/24 04:20:46;;;;;;;17.52;8.77;;;;;;;20.05;93.78;101784.34;5055895;28;20119;-67
2023/06/24 04:23:14;;;;;;;17.95;8.13;;;;;;;20.03;94.63;101788.38;5056977;28;20021;-67
2023/06/24 04:25:40;;;;;;;19.08;8.38;;;;;;;20.00;95.08;101780.66;5056629;28;20022;-67
2023/06/24 04:28:05;;;;;;;26.08;8.43;;;;;;;19.99;94.80;101790.75;5056757;28;20097;-67
2023/06/24 04:30:32;;;;;;;20.67;8.30;;;;;;;19.97;94.86;101790.19;5056730;28;20527;-68
2023/06/24 04:32:58;;;;;;;15.20;7.57;;;;;;;19.99;94.43;101785.31;5056884;28;20033;-67
2023/06/24 04:35:24;;;;;;;13.57;7.55;;;;;;;19.92;94.38;101785.41;5054976;28;20044;-67
2023/06/24 04:37:50;;;;;;;17.17;7.22;;;;;;;19.83;93.73;101769.63;5056677;28;20033;-67
2023/06/24 04:40:17;;;;;;;18.25;7.47;;;;;;;19.95;93.59;101779.47;5055243;28;20553;-67
2023/06/24 04:42:42;;;;;;;16.02;7.15;;;;;;;20.00;93.10;101777.94;5055524;28;20084;-67
2023/06/24 04:45:08;;;;;;;12.73;7.07;;;;;;;20.05;92.60;101770.69;5055648;28;20492;-67
2023/06/24 04:47:34;;;;;;;16.70;6.82;;;;;;;20.07;92.54;101773.22;5038697;28;20516;-68
2023/06/24 04:49:59;;;;;;;15.48;7.45;;;;;;;20.18;91.86;101766.88;5056192;28;20032;-67
2023/06/24 04:52:25;;;;;;;18.30;7.00;;;;;;;20.26;91.51;101763.75;5056106;28;20123;-67
2023/06/24 04:54:50;;;;;;;17.08;7.43;;;;;;;20.34;90.87;101760.69;5055603;28;20099;-68
2023/06/24 04:57:30;;;;;;;15.40;7.40;;;;;;;20.41;90.66;101763.28;5056126;28;20503;-67
2023/06/24 04:59:56;;;;;;;15.27;7.13;;;;;;;20.54;89.85;101773.97;5055939;28;20033;-68
2023/06/24 05:02:22;;;;;;;15.32;6.97;;;;;;;20.55;89.44;101755.66;5059981;28;20047;-68
2023/06/24 05:04:48;;;;;;;18.67;7.88;;;;;;;20.75;89.17;101772.47;5055186;28;20488;-68
2023/06/24 05:07:13;;;;;;;15.38;7.93;;;;;;;20.93;88.47;101778.84;5056545;28;20036;-67
2023/06/24 05:09:39;;;;;;;19.73;7.15;;;;;;;21.05;87.91;101766.75;5064876;28;20025;-68
2023/06/24 05:12:05;;;;;;;18.10;7.55;;;;;;;21.12;87.37;101766.59;5069360;28;20040;-71
2023/06/24 05:14:30;;;;;;;17.38;7.40;;;;;;;21.28;86.81;101771.25;5067256;28;20064;-68
2023/06/24 05:16:56;;;;;;;18.00;7.03;;;;;;;21.38;86.74;101780.75;5067014;28;20039;-68
2023/06/24 05:19:21;;;;;;;19.48;7.43;;;;;;;21.46;86.29;101777.63;5062014;28;20056;-67
2023/06/24 05:21:47;;;;;;;12.18;6.93;;;;;;;21.53;85.96;101773.66;5056215;28;20113;-68
2023/06/24 05:24:12;;;;;;;13.85;6.85;;;;;;;21.66;85.03;101777.13;5053000;28;20268;-67
2023/06/24 05:26:38;;;;;;;19.75;6.78;;;;;;;21.75;84.54;101781.91;5052430;28;20180;-68
2023/06/24 05:29:03;;;;;;;16.13;7.18;;;;;;;21.71;84.21;101783.50;5038456;28;20055;-68
2023/06/24 05:31:29;;;;;;;17.48;7.50;;;;;;;21.78;84.05;101783.34;5056253;28;20025;-67
2023/06/24 05:33:54;;;;;;;14.68;6.68;;;;;;;21.88;83.40;101775.28;5056166;28;20511;-68
2023/06/24 05:36:20;;;;;;;18.58;7.30;;;;;;;21.89;83.44;101766.00;5056176;28;20025;-67
2023/06/24 05:38:45;;;;;;;15.25;7.15;;;;;;;22.00;82.54;101769.69;5054602;28;20027;-68
2023/06/24 05:41:10;;;;;;;12.95;6.32;;;;;;;22.11;81.81;101773.41;5056110;28;20025;-68
2023/06/24 05:43:36;;;;;;;14.63;7.00;;;;;;;22.02;81.40;101757.41;5054655;28;20036;-68
2023/06/24 05:46:02;;;;;;;15.90;6.78;;;;;;;21.97;80.87;101745.53;5054303;28;20033;-68
2023/06/24 05:48:27;;;;;;;16.38;6.55;;;;;;;22.16;80.09;101766.13;5052091;28;20036;-68
2023/06/24 05:50:53;;;;;;;14.25;6.80;;;;;;;22.27;79.40;101769.81;5055512;28;20029;-68
2023/06/24 05:53:18;;;;;;;13.07;6.68;;;;;;;22.32;78.79;101763.56;5055995;28;20179;-68
2023/06/24 05:55:44;;;;;;;18.05;6.85;;;;;;;22.37;78.40;101767.22;5055712;28;20025;-68
2023/06/24 05:58:09;;;;;;;15.65;6.15;;;;;;;22.55;77.69;101762.47;5052929;28;20072;-68
2023/06/24 06:00:35;;;;;;;16.38;6.70;;;;;;;22.90;76.88;101767.56;5054996;28;20567;-70
2023/06/24 06:03:00;;;;;;;14.75;6.32;;;;;;;23.16;75.38;101768.69;5065338;28;20025;-68
2023/06/24 06:05:25;;;;;;;11.63;5.80;;;;;;;23.20;74.20;101765.13;5063044;28;20108;-68
2023/06/24 06:07:52;;;;;;;13.95;6.10;;;;;;;23.41;73.18;101768.91;5054595;28;20029;-68
2023/06/24 06:10:17;;;;;;;17.38;6.03;;;;;;;23.76;71.91;101767.56;5054478;28;20029;-68
2023/06/24 06:12:44;;;;;;;18.58;6.82;;;;;;;24.06;70.64;101764.16;5055438;28;20025;-68
2023/06/24 06:15:10;;;;;;;16.35;5.55;;;;;;;24.03;69.72;101767.44;5054979;28;20035;-68
2023/06/24 06:17:35;;;;;;;16.98;6.00;;;;;;;24.19;69.16;101771.13;5055193;28;20029;-68
2023/06/24 06:20:01;;;;;;;13.98;5.95;;;;;;;24.09;69.24;101769.13;5054300;28;20524;-68
2023/06/24 06:22:26;;;;;;;12.73;5.80;;;;;;;24.04;69.53;101773.78;5054183;28;20021;-68
2023/06/24 06:24:52;;;;;;;13.77;6.35;;;;;;;23.96;69.83;101771.53;5054473;28;20025;-68
2023/06/24 06:27:17;;;;;;;12.43;5.68;;;;;;;23.69;70.29;101761.47;5057395;28;20033;-68
2023/06/24 06:29:43;;;;;;;10.90;6.05;;;;;;;23.68;70.36;101771.63;5057549;28;20037;-68
2023/06/24 06:32:08;;;;;;;13.88;6.05;;;;;;;23.69;70.42;101780.69;5056692;28;20024;-68
2023/06/24 06:34:34;;;;;;;12.95;6.63;;;;;;;23.64;70.36;101775.13;5057404;28;20033;-68
2023/06/24 06:36:59;;;;;;;13.90;6.65;;;;;;;23.70;70.23;101776.84;5055552;28;20048;-68
2023/06/24 06:39:26;;;;;;;15.70;6.53;;;;;;;23.68;70.42;101773.56;5055461;28;20502;-68
2023/06/24 06:41:51;;;;;;;15.32;6.22;;;;;;;23.51;71.26;101783.81;5024679;28;20036;-68
2023/06/24 06:44:17;;;;;;;16.60;6.60;;;;;;;23.45;71.28;101789.28;5058005;28;20075;-68
2023/06/24 06:46:42;;;;;;;16.08;6.47;;;;;;;23.45;71.11;101783.78;5057434;28;20082;-68
2023/06/24 06:49:08;;;;;;;16.58;6.80;;;;;;;23.47;71.14;101786.25;5057401;28;20037;-68
2023/06/24 06:51:34;;;;;;;10.40;5.75;;;;;;;23.47;70.74;101785.44;5057289;28;20025;-68
2023/06/24 06:54:00;;;;;;;12.52;6.82;;;;;;;23.38;70.21;101787.84;5040930;28;20036;-68
2023/06/24 06:56:25;;;;;;;18.48;6.28;;;;;;;23.28;70.02;101777.59;5057549;28;20032;-68
2023/06/24 06:58:52;;;;;;;13.32;5.85;;;;;;;23.47;69.35;101794.50;5041348;28;20029;-68
2023/06/24 07:01:18;;;;;;;14.32;6.22;;;;;;;23.51;68.44;101786.56;5056915;28;20029;-68
2023/06/24 07:03:44;;;;;;;14.13;6.38;;;;;;;23.73;67.58;101789.25;5055120;28;20025;-67
2023/06/24 07:06:09;;;;;;;13.00;5.80;;;;;;;23.85;66.81;101795.38;5061736;28;20056;-68
2023/06/24 07:08:35;;;;;;;13.57;6.00;;;;;;;24.01;66.62;101791.66;5067082;28;20029;-68
2023/06/24 07:11:02;;;;;;;13.63;6.00;;;;;;;24.10;66.28;101797.47;5057978;28;20041;-68
2023/06/24 07:13:27;;;;;;;13.50;6.00;;;;;;;24.09;65.91;101785.63;5056903;28;20201;-68
2023/06/24 07:15:52;;;;;;;16.20;6.78;;;;;;;24.28;65.33;101802.53;5040116;28;20057;-68
2023/06/24 07:18:18;;;;;;;15.52;6.10;;;;;;;24.41;65.35;101806.75;5058293;28;20039;-68
2023/06/24 07:20:43;;;;;;;15.93;5.80;;;;;;;24.57;64.95;101799.41;5040515;28;20033;-68
2023/06/24 07:23:10;;;;;;;13.77;5.80;;;;;;;24.68;64.55;101789.25;5057291;28;20033;-68
2023/06/24 07:25:35;;;;;;;12.93;6.05;;;;;;;24.78;64.03;101801.13;5061116;28;20028;-68
2023/06/24 07:28:00;;;;;;;12.40;5.80;;;;;;;24.82;63.86;101795.91;5059424;28;20416;-68
2023/06/24 07:30:26;;;;;;;13.52;6.32;;;;;;;24.89;63.87;101803.91;5059747;28;20455;-68
2023/06/24 07:32:51;;;;;;;14.75;6.10;;;;;;;24.93;63.88;101803.06;5057634;28;20516;-68
2023/06/24 07:35:18;;;;;;;13.95;5.82;;;;;;;24.94;64.00;101799.25;5056790;28;20032;-68
2023/06/24 07:37:44;;;;;;;12.95;5.88;;;;;;;24.98;63.74;101792.09;5039294;28;20029;-68
2023/06/24 07:40:10;;;;;;;13.77;6.47;;;;;;;24.94;63.44;101793.72;5058037;28;20052;-68
2023/06/24 07:42:35;;;;;;;13.52;6.38;;;;;;;25.02;62.75;101787.69;5056570;28;20039;-68
2023/06/24 07:45:01;;;;;;;17.48;6.00;;;;;;;25.41;62.06;101805.69;5058129;28;20502;-68
2023/06/24 07:47:26;;;;;;;15.00;6.38;;;;;;;25.50;61.75;101795.78;5055758;28;20052;-68
2023/06/24 07:49:52;;;;;;;12.73;5.93;;;;;;;25.37;62.06;101810.09;5053606;28;20033;-68
2023/06/24 07:52:17;;;;;;;13.00;6.05;;;;;;;25.39;60.93;101789.41;5055611;28;20048;-69
2023/06/24 07:54:43;;;;;;;11.57;5.80;;;;;;;25.32;61.13;101799.88;5039476;28;20024;-70
2023/06/24 07:57:09;;;;;;;15.43;6.03;;;;;;;25.35;61.15;101804.84;5060047;28;20044;-70
2023/06/24 07:59:34;;;;;;;10.98;5.53;;;;;;;25.40;60.24;101813.13;5065875;28;20497;-69
2023/06/24 08:01:59;;;;;;;12.65;5.88;;;;;;;25.53;59.80;101809.00;5061261;28;20036;-69
2023/06/24 08:04:25;;;;;;;15.35;6.10;;;;;;;25.59;59.03;101818.06;5055252;28;20060;-69
2023/06/24 08:06:50;;;;;;;14.75;5.95;;;;;;;25.55;59.29;101804.84;5056788;28;20036;-69
2023/06/24 08:09:17;;;;;;;13.25;5.68;;;;;;;25.34;59.48;101810.63;5055752;28;20028;-69
2023/06/24 08:11:43;;;;;;;12.13;5.60;;;;;;;25.19;59.96;101816.94;5056206;28;20035;-69
2023/06/24 08:14:08;;;;;;;13.05;5.57;;;;;;;25.14;59.50;101815.00;5056946;28;20043;-69
2023/06/24 08:16:33;;;;;;;13.45;5.75;;;;;;;25.14;58.94;101814.19;5038303;28;20123;-69
2023/06/24 08:18:59;;;;;;;13.82;6.07;;;;;;;25.17;58.99;101816.41;5054437;28;20031;-69
2023/06/24 08:21:24;;;;;;;14.88;5.72;;;;;;;25.43;58.56;101804.31;5056691;28;20041;-69
2023/06/24 08:23:51;;;;;;;12.38;5.22;;;;;;;25.85;56.77;101825.25;5057071;28;20475;-69
2023/06/24 08:26:17;;;;;;;10.43;5.68;;;;;;;25.67;56.71;101823.06;5056696;28;20399;-69
2023/06/24 08:28:42;;;;;;;12.32;5.65;;;;;;;25.85;56.87;101821.69;5055459;28;20032;-68
2023/06/24 08:31:07;;;;;;;14.65;5.75;;;;;;;25.99;56.32;101817.25;5055160;28;20043;-69
2023/06/24 08:33:33;;;;;;;12.73;5.35;;;;;;;25.89;56.43;101826.34;5038805;28;20440;-69
2023/06/24 08:35:59;;;;;;;11.60;5.72;;;;;;;25.90;56.22;101822.50;5055761;28;20032;-68
2023/06/24 08:38:24;;;;;;;13.80;6.07;;;;;;;25.78;56.51;101827.44;5056608;28;20060;-69
2023/06/24 08:40:50;;;;;;;11.30;5.50;;;;;;;25.59;57.14;101794.09;5057128;28;20033;-68
2023/06/24 08:43:16;;;;;;;14.45;6.25;;;;;;;25.63;57.32;101809.00;5055322;28;20399;-69
2023/06/24 08:45:42;;;;;;;15.25;6.18;;;;;;;25.67;57.90;101823.88;5056579;28;20025;-69
2023/06/24 08:48:07;;;;;;;14.45;5.78;;;;;;;25.76;57.33;101822.22;5056055;28;20574;-69
2023/06/24 08:50:39;;;;;;;16.95;5.90;;;;;;;25.99;56.18;101823.63;5057000;28;20029;-69
2023/06/24 08:53:08;;;;;;;16.25;6.00;;;;;;;25.99;56.50;101815.34;5055384;28;20440;-68
2023/06/24 08:55:39;;;;;;;13.00;6.00;;;;;;;25.77;56.97;101817.53;5060539;28;20039;-69
2023/06/24 08:58:05;;;;;;;12.43;6.07;;;;;;;25.73;56.38;101809.00;5060994;28;20029;-69
2023/06/24 09:00:31;;;;;;;11.60;5.53;;;;;;;25.56;56.37;101805.66;5056691;28;20048;-69
2023/06/24 09:02:56;;;;;;;12.93;5.07;;;;;;;25.63;56.35;101833.81;5056877;28;20482;-69
2023/06/24 09:05:22;;;;;;;12.00;5.25;;;;;;;25.54;56.42;101827.19;5065047;28;20438;-68
2023/06/24 09:07:48;;;;;;;9.57;5.03;;;;;;;25.45;56.27;101815.03;5042226;28;20396;-69
2023/06/24 09:10:36;;;;;;;12.40;5.70;;;;;;;25.70;55.24;101828.84;5070690;28;20079;-69
2023/06/24 09:13:06;;;;;;;11.93;5.25;;;;;;;25.72;55.10;101825.78;5071323;28;20081;-69
2023/06/24 09:15:33;;;;;;;13.57;5.32;;;;;;;25.88;55.10;101837.69;5072161;28;20020;-69
2023/06/24 09:18:02;;;;;;;12.38;5.25;;;;;;;25.86;54.67;101834.34;5070833;28;20032;-71
2023/06/24 09:20:28;;;;;;;13.52;5.32;;;;;;;25.91;55.13;101840.69;5070374;28;20028;-70
2023/06/24 09:23:01;;;;;;;11.48;5.32;;;;;;;26.05;54.21;101838.19;5071945;28;20025;-69
2023/06/24 09:25:27;;;;;;;13.02;5.45;;;;;;;26.09;53.94;101833.78;5065515;28;20135;-69
2023/06/24 09:27:55;;;;;;;10.60;5.03;;;;;;;26.28;53.57;101838.72;5058783;28;20033;-69
2023/06/24 09:30:22;;;;;;;12.05;5.70;;;;;;;26.30;53.58;101831.00;5057144;28;20025;-69
2023/06/24 09:32:49;;;;;;;10.68;4.53;;;;;;;26.42;52.63;101832.34;5054731;28;20116;-68
2023/06/24 09:35:18;;;;;;;10.18;4.90;;;;;;;26.43;52.80;101841.44;5054411;28;20021;-68
2023/06/24 09:37:49;;;;;;;11.50;5.05;;;;;;;26.47;52.66;101828.72;5055239;28;20047;-69
2023/06/24 09:40:14;;;;;;;9.43;5.00;;;;;;;26.40;52.74;101825.44;5054967;28;20093;-68
2023/06/24 09:42:57;;;;;;;15.00;5.35;;;;;;;26.32;52.50;101837.03;5038335;28;20064;-69
2023/06/24 09:45:25;;;;;;;13.68;5.38;;;;;;;26.13;52.45;101840.41;5053747;28;20048;-68
2023/06/24 09:47:50;;;;;;;10.77;4.80;;;;;;;25.93;52.30;101827.47;5052772;28;20055;-69
2023/06/24 09:50:16;;;;;;;9.63;4.78;;;;;;;25.76;52.16;101843.44;5021490;28;20041;-69
2023/06/24 09:52:44;;;;;;;16.48;5.63;;;;;;;25.70;52.71;101842.63;5055827;28;20021;-68
2023/06/24 09:55:10;;;;;;;11.27;4.72;;;;;;;25.88;52.75;101844.00;5055463;28;20050;-69
2023/06/24 09:57:36;;;;;;;9.02;4.88;;;;;;;25.99;52.55;101840.16;5054241;28;20020;-68
2023/06/24 10:00:01;;;;;;;12.38;4.90;;;;;;;26.08;52.30;101840.41;5037994;28;20034;-69
2023/06/24 10:02:30;;;;;;;16.10;5.50;;;;;;;25.84;52.11;101833.81;5059540;28;20033;-69
2023/06/24 10:04:56;;;;;;;14.60;5.30;;;;;;;26.00;52.30;101852.84;5058457;28;20028;-69
2023/06/24 10:07:22;;;;;;;9.95;4.97;;;;;;;25.88;52.45;101852.28;5059617;28;20040;-69
2023/06/24 10:09:48;;;;;;;13.38;5.35;;;;;;;25.94;52.66;101836.56;5058582;28;20036;-69
2023/06/24 10:12:14;;;;;;;11.50;4.72;;;;;;;26.25;52.31;101842.84;5059320;28;20369;-68
2023/06/24 10:14:39;;;;;;;9.93;4.88;;;;;;;26.32;51.94;101848.06;5059535;28;20058;-69
2023/06/24 10:17:05;;;;;;;11.68;5.25;;;;;;;26.46;50.89;101847.22;5059184;28;20039;-69
2023/06/24 10:19:40;;;;;;;10.98;4.90;;;;;;;25.96;51.48;101788.31;5058527;28;20106;-69
2023/06/24 10:22:12;;;;;;;11.02;4.65;;;;;;;26.08;51.05;101848.69;5058356;28;20025;-69
2023/06/24 10:24:41;;;;;;;11.50;5.05;;;;;;;26.28;51.74;101842.28;5057882;28;20030;-69
2023/06/24 10:27:24;;;;;;;10.80;4.50;;;;;;;26.65;51.00;101844.69;5059384;28;20017;-69
2023/06/24 10:29:52;;;;;;;11.52;4.70;;;;;;;26.63;51.11;101829.53;5055911;28;20368;-69
2023/06/24 10:32:19;;;;;;;11.38;4.90;;;;;;;26.39;51.20;101823.78;5057704;28;20032;-69
2023/06/24 10:34:46;;;;;;;10.70;5.00;;;;;;;26.25;51.22;101845.59;5058921;28;20029;-69
2023/06/24 10:37:20;;;;;;;17.90;5.32;;;;;;;25.96;51.35;101839.88;5057266;28;20352;-69
2023/06/24 10:39:51;;;;;;;12.70;4.97;;;;;;;25.77;51.99;101843.16;5058250;28;20387;-68
2023/06/24 10:42:25;;;;;;;14.32;4.70;;;;;;;26.01;51.25;101840.69;5058978;28;20104;-69
2023/06/24 10:44:52;;;;;;;10.45;4.95;;;;;;;26.38;51.02;101846.97;5057892;28;20032;-69
2023/06/24 10:47:18;;;;;;;9.75;4.88;;;;;;;26.48;49.73;101841.44;5058512;28;20053;-69
2023/06/24 10:49:44;;;;;;;11.65;4.65;;;;;;;26.44;50.50;101838.38;5057457;28;20087;-69
2023/06/24 10:52:10;;;;;;;9.38;4.57;;;;;;;26.37;50.31;101848.91;5057621;28;20443;-69
2023/06/24 10:54:37;;;;;;;11.52;4.70;;;;;;;25.99;50.63;101842.91;5057337;28;20036;-69
2023/06/24 10:57:04;;;;;;;12.23;4.30;;;;;;;26.13;51.04;101850.63;5058574;28;20131;-69
2023/06/24 10:59:51;;;;;;;12.90;4.50;;;;;;;26.29;50.65;101845.88;5058627;28;20514;-69
2023/06/24 11:02:18;;;;;;;10.23;4.38;;;;;;;26.24;50.22;101847.53;5058088;28;20037;-69
2023/06/24 11:04:44;;;;;;;11.65;4.50;;;;;;;25.73;50.07;101838.50;5058104;28;20021;-69
2023/06/24 11:07:09;;;;;;;12.25;4.50;;;;;;;25.59;51.00;101848.41;5056685;28;20047;-69
2023/06/24 11:09:35;;;;;;;9.57;4.57;;;;;;;25.47;52.10;101855.00;5059128;28;20025;-69
2023/06/24 11:12:05;;;;;;;15.45;4.85;;;;;;;25.25;51.83;101857.16;5057796;28;20033;-69
2023/06/24 11:14:34;;;;;;;11.23;4.88;;;;;;;25.26;52.62;101861.56;5057422;28;20067;-69
2023/06/24 11:17:02;;;;;;;12.35;5.32;;;;;;;25.54;52.40;101858.31;5059150;28;20076;-69